Time;durP1;ratioP1;P1;durP2;ratioP2;P2;SDS_P1;SDS_P2;PMS_P1;PMS_P2;Temp;Humidity;BMP_temperature;BMP_pressure;BME280_temperature;BME280_humidity;BME280_pressure;Samples;Min_cycle;Max_cycle;Signal;HPM_P1;HPM_P2
2021/08/07 00:00:30;;;;;;;3.13;2.00;;;;;;;19.41;79.42;95617.88;4994328;28;20181;-64
2021/08/07 00:02:55;;;;;;;2.43;1.70;;;;;;;19.41;78.95;95617.88;4993706;28;20189;-64
2021/08/07 00:05:20;;;;;;;2.40;2.17;;;;;;;19.44;78.94;95609.28;4994103;28;20201;-66
2021/08/07 00:07:46;;;;;;;3.43;1.63;;;;;;;19.36;79.14;95626.78;4993793;28;20181;-66
2021/08/07 00:10:11;;;;;;;1.63;1.53;;;;;;;19.33;79.47;95635.34;4994204;28;20173;-64
2021/08/07 00:12:37;;;;;;;2.30;1.90;;;;;;;19.37;79.40;95624.88;4992413;28;20181;-65
2021/08/07 00:15:04;;;;;;;3.57;2.27;;;;;;;19.34;79.31;95618.28;4994287;28;20189;-65
2021/08/07 00:17:29;;;;;;;2.23;2.03;;;;;;;19.36;79.06;95618.00;4976076;28;20437;-65
2021/08/07 00:19:54;;;;;;;2.93;1.97;;;;;;;19.31;79.64;95618.88;4979431;28;20432;-62
2021/08/07 00:22:20;;;;;;;4.37;2.27;;;;;;;19.27;80.50;95603.75;4989341;28;20185;-66
2021/08/07 00:24:45;;;;;;;4.83;2.07;;;;;;;19.32;80.17;95601.03;4990134;28;20230;-64
2021/08/07 00:27:11;;;;;;;2.37;2.13;;;;;;;19.29;80.29;95597.06;5001053;28;20239;-65
2021/08/07 00:29:38;;;;;;;2.93;2.50;;;;;;;19.27;80.40;95588.56;4993860;28;20188;-65
2021/08/07 00:32:04;;;;;;;2.80;2.10;;;;;;;19.30;80.13;95587.97;4992345;28;20180;-65
2021/08/07 00:34:30;;;;;;;2.10;2.00;;;;;;;19.29;80.55;95593.59;4993312;28;20484;-65
2021/08/07 00:36:55;;;;;;;2.30;2.10;;;;;;;19.23;80.75;95600.13;4993484;28;20173;-65
2021/08/07 00:39:21;;;;;;;2.47;2.20;;;;;;;19.24;81.23;95602.47;4993755;28;20251;-65
2021/08/07 00:41:46;;;;;;;2.80;2.60;;;;;;;19.29;80.45;95605.06;4990150;28;20186;-65
2021/08/07 00:44:12;;;;;;;2.30;2.10;;;;;;;19.32;80.70;95601.03;4992848;28;20459;-65
2021/08/07 00:46:37;;;;;;;2.30;2.10;;;;;;;19.29;81.29;95599.72;4993568;28;20236;-66
2021/08/07 00:49:04;;;;;;;2.37;2.17;;;;;;;19.36;81.52;95594.00;4993779;28;20181;-65
2021/08/07 00:51:31;;;;;;;2.50;2.00;;;;;;;19.37;81.16;95585.72;4994030;28;20174;-65
2021/08/07 00:53:58;;;;;;;2.50;2.10;;;;;;;19.42;80.82;95590.91;4993019;28;20427;-65
2021/08/07 00:56:24;;;;;;;3.80;2.20;;;;;;;19.37;80.94;95592.91;4993532;28;20480;-66
2021/08/07 00:58:50;;;;;;;4.20;2.00;;;;;;;19.38;80.56;95586.50;4993859;28;20416;-65
2021/08/07 01:01:16;;;;;;;3.00;2.20;;;;;;;19.31;81.31;95583.47;4992912;28;20181;-64
2021/08/07 01:03:53;;;;;;;2.53;2.33;;;;;;;19.32;81.17;95585.03;4992730;28;20182;-64
2021/08/07 01:06:45;;;;;;;2.90;2.33;;;;;;;19.36;81.45;95580.69;4993883;28;20817;-66
2021/08/07 01:09:19;;;;;;;4.67;2.70;;;;;;;19.40;80.95;95585.09;4993887;28;20416;-66
2021/08/07 01:11:57;;;;;;;3.50;2.20;;;;;;;19.28;81.43;95582.16;4993747;28;20409;-66
2021/08/07 01:14:32;;;;;;;2.70;2.13;;;;;;;19.20;81.92;95574.84;4981080;28;20448;-65
2021/08/07 01:16:58;;;;;;;2.63;2.10;;;;;;;19.29;81.60;95582.94;4993906;28;20755;-65
2021/08/07 01:19:27;;;;;;;2.80;2.00;;;;;;;19.33;81.74;95576.72;4993483;28;20432;-66
2021/08/07 01:22:00;;;;;;;3.00;2.00;;;;;;;19.31;81.69;95567.47;4993683;28;20519;-65
2021/08/07 01:24:36;;;;;;;2.93;1.90;;;;;;;19.34;81.56;95566.88;4993164;28;20919;-64
2021/08/07 01:27:02;;;;;;;2.10;2.00;;;;;;;19.39;81.14;95562.22;4992656;28;20427;-65
2021/08/07 01:29:29;;;;;;;2.57;2.10;;;;;;;19.43;81.28;95554.41;4985919;28;20425;-65
2021/08/07 01:31:55;;;;;;;2.20;2.00;;;;;;;19.40;81.34;95557.69;4983078;28;20952;-65
2021/08/07 01:34:21;;;;;;;2.37;2.17;;;;;;;19.43;81.21;95562.41;4992756;28;20448;-64
2021/08/07 01:36:48;;;;;;;2.00;1.90;;;;;;;19.38;81.29;95552.66;4993481;28;20443;-66
2021/08/07 01:39:14;;;;;;;3.60;2.20;;;;;;;19.36;80.83;95549.50;4993316;28;20761;-66
2021/08/07 01:41:40;;;;;;;1.87;1.77;;;;;;;19.40;81.03;95555.78;4993643;28;20421;-66
2021/08/07 01:44:06;;;;;;;3.10;2.30;;;;;;;19.39;80.50;95548.09;4991632;28;21016;-66
2021/08/07 01:46:38;;;;;;;2.70;2.03;;;;;;;19.49;79.58;95537.22;4993000;28;20547;-64
2021/08/07 01:49:16;;;;;;;3.17;2.30;;;;;;;19.51;79.74;95539.59;4994711;28;20432;-65
2021/08/07 01:51:47;;;;;;;5.77;2.77;;;;;;;19.54;79.46;95539.78;4997070;28;20412;-66
2021/08/07 01:54:16;;;;;;;2.30;1.60;;;;;;;19.53;79.29;95538.19;4995844;28;20440;-64
2021/08/07 01:56:44;;;;;;;2.10;2.00;;;;;;;19.47;79.63;95547.41;4996502;28;20421;-66
2021/08/07 01:59:14;;;;;;;3.57;2.20;;;;;;;19.51;79.59;95536.91;4996200;28;20420;-66
2021/08/07 02:01:41;;;;;;;2.93;2.40;;;;;;;19.51;79.24;95537.72;4996579;28;20431;-65
2021/08/07 02:04:09;;;;;;;2.57;2.30;;;;;;;19.48;79.63;95547.09;4995795;28;20537;-65
2021/08/07 02:06:34;;;;;;;2.33;1.87;;;;;;;19.49;79.75;95543.31;4996647;28;20526;-65
2021/08/07 02:09:01;;;;;;;2.80;2.17;;;;;;;19.48;80.33;95547.09;4996298;28;20903;-66
2021/08/07 02:11:27;;;;;;;2.63;2.10;;;;;;;19.57;79.23;95541.06;4996567;28;20169;-65
2021/08/07 02:13:55;;;;;;;2.60;2.00;;;;;;;19.57;79.47;95549.06;4989205;28;20418;-65
2021/08/07 02:16:20;;;;;;;3.17;2.20;;;;;;;19.52;80.09;95547.28;4996573;28;20403;-66
2021/08/07 02:18:47;;;;;;;3.00;2.33;;;;;;;19.47;80.58;95542.06;4992472;28;20793;-65
2021/08/07 02:21:15;;;;;;;3.00;2.17;;;;;;;19.47;80.64;95539.41;4977228;28;20178;-66
2021/08/07 02:23:41;;;;;;;2.20;2.00;;;;;;;19.51;80.51;95543.03;4983187;28;20432;-65
2021/08/07 02:26:10;;;;;;;2.73;1.83;;;;;;;19.43;81.22;95530.44;4995889;28;20453;-65
2021/08/07 02:28:36;;;;;;;2.13;1.80;;;;;;;19.45;81.28;95530.91;4995936;28;20764;-66
2021/08/07 02:31:03;;;;;;;2.50;1.80;;;;;;;19.48;81.04;95526.88;4996469;28;20451;-66
2021/08/07 02:33:28;;;;;;;2.30;1.70;;;;;;;19.44;81.22;95534.66;4994725;28;20523;-65
2021/08/07 02:35:57;;;;;;;2.10;2.00;;;;;;;19.44;80.59;95526.66;4996154;28;20524;-64
2021/08/07 02:38:26;;;;;;;2.03;1.87;;;;;;;19.43;80.92;95522.44;4996117;28;20173;-65
2021/08/07 02:40:53;;;;;;;1.90;1.80;;;;;;;19.40;80.67;95521.16;4995805;28;20444;-65
2021/08/07 02:43:19;;;;;;;2.90;1.70;;;;;;;19.35;80.42;95515.94;4995647;28;20412;-65
2021/08/07 02:45:45;;;;;;;2.60;2.10;;;;;;;19.19;79.37;95520.00;4995494;28;20464;-66
2021/08/07 02:48:11;;;;;;;2.50;1.53;;;;;;;19.20;78.97;95526.91;4994933;28;20425;-66
2021/08/07 02:50:39;;;;;;;2.80;1.90;;;;;;;19.14;78.28;95524.66;4995877;28;20181;-66
2021/08/07 02:53:04;;;;;;;4.60;2.10;;;;;;;19.24;78.13;95521.78;4995610;28;20420;-65
2021/08/07 02:55:31;;;;;;;3.23;2.00;;;;;;;19.28;77.69;95520.06;4995331;28;20440;-64
2021/08/07 02:57:58;;;;;;;2.27;1.90;;;;;;;19.22;77.98;95505.31;4995839;28;20170;-65
2021/08/07 03:00:23;;;;;;;1.90;1.63;;;;;;;19.21;78.07;95511.72;4994921;28;20421;-65
2021/08/07 03:02:49;;;;;;;2.07;1.97;;;;;;;19.23;78.23;95501.53;4987063;28;20837;-66
2021/08/07 03:05:15;;;;;;;2.57;1.80;;;;;;;19.31;78.04;95501.63;4995354;28;20269;-66
2021/08/07 03:07:40;;;;;;;3.20;1.77;;;;;;;19.28;77.98;95494.22;4994228;28;20184;-65
2021/08/07 03:10:09;;;;;;;1.80;1.70;;;;;;;19.33;77.59;95493.38;4995537;28;20483;-66
2021/08/07 03:12:35;;;;;;;3.47;2.13;;;;;;;19.30;78.17;95492.06;4995461;28;20185;-66
2021/08/07 03:15:01;;;;;;;3.13;1.87;;;;;;;19.31;78.15;95498.22;4995067;28;20527;-66
2021/08/07 03:17:26;;;;;;;1.77;1.67;;;;;;;19.32;78.14;95503.22;4994588;28;20499;-66
2021/08/07 03:19:52;;;;;;;2.03;1.80;;;;;;;19.30;78.50;95499.25;4983394;28;20186;-65
2021/08/07 03:22:18;;;;;;;2.83;2.10;;;;;;;19.31;78.25;95498.97;4994154;28;20185;-66
2021/08/07 03:24:44;;;;;;;2.67;2.40;;;;;;;19.27;78.40;95502.53;4994544;28;20201;-65
2021/08/07 03:27:10;;;;;;;2.30;2.10;;;;;;;19.23;78.93;95506.88;4995400;28;20268;-65
2021/08/07 03:29:35;;;;;;;2.90;2.17;;;;;;;19.09;79.45;95503.47;4995189;28;20456;-65
2021/08/07 03:32:01;;;;;;;2.60;1.80;;;;;;;19.07;79.66;95489.66;4994844;28;20182;-64
2021/08/07 03:34:26;;;;;;;3.77;2.10;;;;;;;19.06;79.74;95504.84;4992861;28;20201;-66
2021/08/07 03:36:51;;;;;;;3.80;2.10;;;;;;;19.00;78.95;95503.41;4977354;28;20681;-64
2021/08/07 03:39:17;;;;;;;1.80;1.70;;;;;;;18.75;77.63;95495.91;4975560;28;20174;-64
2021/08/07 03:41:42;;;;;;;1.60;1.50;;;;;;;18.82;77.94;95490.22;4975719;28;20174;-66
2021/08/07 03:44:08;;;;;;;2.00;1.50;;;;;;;18.90;77.86;95479.63;4981311;28;20223;-64
2021/08/07 03:46:33;;;;;;;1.97;1.80;;;;;;;18.97;78.06;95481.91;4994340;28;20304;-66
2021/08/07 03:48:58;;;;;;;2.97;1.63;;;;;;;19.02;78.67;95484.44;4993514;28;20547;-65
2021/08/07 03:51:24;;;;;;;2.60;1.80;;;;;;;19.04;78.38;95482.28;4980358;28;20178;-65
2021/08/07 03:53:49;;;;;;;2.70;1.50;;;;;;;19.02;78.63;95473.78;4977981;28;20189;-65
2021/08/07 03:56:14;;;;;;;3.33;1.70;;;;;;;18.98;79.48;95457.63;4994497;28;20682;-66
2021/08/07 03:58:40;;;;;;;1.80;1.70;;;;;;;19.07;79.13;95465.69;4994759;28;20189;-65
2021/08/07 04:01:05;;;;;;;5.53;1.80;;;;;;;19.07;79.42;95463.03;4994269;28;20184;-66
2021/08/07 04:03:30;;;;;;;2.00;1.63;;;;;;;19.03;79.22;95462.03;4993794;28;20280;-66
2021/08/07 04:05:56;;;;;;;4.47;2.47;;;;;;;19.03;79.10;95472.69;4991579;28;20221;-65
2021/08/07 04:08:21;;;;;;;3.00;1.60;;;;;;;19.04;78.88;95458.31;4994502;28;20257;-66
2021/08/07 04:10:46;;;;;;;1.97;1.70;;;;;;;19.02;79.21;95465.81;4993806;28;20205;-66
2021/08/07 04:13:12;;;;;;;2.83;1.93;;;;;;;18.94;79.82;95469.97;4993885;28;20543;-65
2021/08/07 04:15:38;;;;;;;1.80;1.70;;;;;;;18.88;79.83;95468.50;4994322;28;20197;-64
2021/08/07 04:18:03;;;;;;;1.90;1.70;;;;;;;18.87;79.66;95471.47;4994599;28;20184;-65
2021/08/07 04:20:29;;;;;;;2.60;1.63;;;;;;;18.88;79.98;95462.41;4983622;28;20437;-65
2021/08/07 04:22:54;;;;;;;2.80;1.70;;;;;;;18.89;79.56;95464.75;4974494;28;20257;-65
2021/08/07 04:25:20;;;;;;;2.10;1.70;;;;;;;18.86;79.95;95464.56;4974711;28;20245;-66
2021/08/07 04:27:45;;;;;;;2.83;1.90;;;;;;;18.85;79.66;95460.31;4974886;28;20249;-65
2021/08/07 04:30:11;;;;;;;3.03;1.57;;;;;;;18.80;78.00;95463.91;4974912;28;20176;-65
2021/08/07 04:32:37;;;;;;;3.50;1.70;;;;;;;18.81;77.75;95459.34;4974593;28;20181;-66
2021/08/07 04:35:04;;;;;;;2.60;1.60;;;;;;;18.84;78.49;95442.78;4983314;28;20436;-65
2021/08/07 04:37:29;;;;;;;2.70;1.80;;;;;;;18.89;79.30;95438.13;4994310;28;20416;-66
2021/08/07 04:39:54;;;;;;;2.33;1.53;;;;;;;18.90;79.67;95445.03;4994068;28;20413;-66
2021/08/07 04:42:20;;;;;;;1.97;1.87;;;;;;;18.96;79.77;95433.19;4994098;28;20169;-65
2021/08/07 04:44:45;;;;;;;3.73;1.97;;;;;;;18.96;80.18;95438.50;4993553;28;20314;-64
2021/08/07 04:47:10;;;;;;;5.13;2.33;;;;;;;18.95;80.54;95447.56;4994019;28;20193;-66
2021/08/07 04:49:36;;;;;;;4.43;2.03;;;;;;;18.93;80.64;95455.06;4986339;28;20708;-65
2021/08/07 04:52:04;;;;;;;3.10;1.97;;;;;;;18.90;80.41;95453.00;4974670;28;20177;-66
2021/08/07 04:54:29;;;;;;;3.17;2.00;;;;;;;18.94;80.27;95461.19;4974276;28;20190;-64
2021/08/07 04:56:55;;;;;;;3.83;1.80;;;;;;;18.92;80.36;95456.16;4974601;28;20413;-66
2021/08/07 04:59:20;;;;;;;1.87;1.77;;;;;;;18.91;80.64;95456.47;4992248;28;20181;-65
2021/08/07 05:01:45;;;;;;;3.50;2.10;;;;;;;18.82;79.29;95456.41;4994038;28;20264;-66
2021/08/07 05:04:12;;;;;;;2.20;1.67;;;;;;;18.90;78.56;95457.53;4993443;28;20197;-65
2021/08/07 05:06:37;;;;;;;2.70;1.63;;;;;;;18.93;78.47;95459.63;4993797;28;20811;-65
2021/08/07 05:09:03;;;;;;;3.30;2.30;;;;;;;18.87;77.32;95460.81;4992549;28;20497;-65
2021/08/07 05:11:29;;;;;;;1.83;1.40;;;;;;;18.69;77.88;95469.72;4974452;28;20652;-64
2021/08/07 05:13:54;;;;;;;5.00;1.57;;;;;;;18.49;77.99;95468.25;4973899;28;20248;-65
2021/08/07 05:16:20;;;;;;;2.67;1.60;;;;;;;18.37;78.10;95466.06;4974532;28;20644;-65
2021/08/07 05:18:45;;;;;;;2.60;1.30;;;;;;;18.48;77.89;95464.81;4974436;28;20175;-65
2021/08/07 05:21:10;;;;;;;3.10;1.60;;;;;;;18.38;78.50;95451.69;4974691;28;20174;-66
2021/08/07 05:23:36;;;;;;;1.77;1.50;;;;;;;18.58;78.61;95447.84;4984651;28;20636;-65
2021/08/07 05:26:01;;;;;;;1.53;1.43;;;;;;;18.52;78.55;95440.25;4996617;28;20292;-65
2021/08/07 05:28:27;;;;;;;2.33;1.90;;;;;;;18.62;78.50;95435.53;4997231;28;20169;-65
2021/08/07 05:30:52;;;;;;;1.70;1.60;;;;;;;18.63;78.29;95439.75;4993541;28;20185;-65
2021/08/07 05:33:17;;;;;;;1.40;1.30;;;;;;;18.80;78.16;95439.94;4996210;28;20207;-65
2021/08/07 05:35:43;;;;;;;4.37;1.87;;;;;;;18.84;77.44;95443.53;4996821;28;20186;-64
2021/08/07 05:38:09;;;;;;;1.80;1.70;;;;;;;18.88;77.53;95436.53;4997217;28;20174;-66
2021/08/07 05:40:34;;;;;;;1.93;1.60;;;;;;;18.97;77.04;95439.31;4996622;28;20239;-66
2021/08/07 05:42:59;;;;;;;3.63;1.53;;;;;;;19.00;76.75;95439.50;4997039;28;20633;-66
2021/08/07 05:45:25;;;;;;;3.50;2.10;;;;;;;19.00;77.15;95444.00;4996520;28;20209;-66
2021/08/07 05:47:50;;;;;;;2.37;2.00;;;;;;;18.97;77.03;95448.06;4995962;28;20663;-65
2021/08/07 05:50:15;;;;;;;2.30;1.50;;;;;;;19.09;76.98;95442.22;4995773;28;20252;-65
2021/08/07 05:52:41;;;;;;;3.63;2.10;;;;;;;19.22;76.00;95457.38;4996660;28;20500;-66
2021/08/07 05:55:07;;;;;;;2.27;1.60;;;;;;;19.08;76.19;95472.56;4996594;28;20302;-64
2021/08/07 05:57:32;;;;;;;3.17;1.60;;;;;;;19.14;75.74;95469.53;4996797;28;20236;-65
2021/08/07 05:59:58;;;;;;;2.10;1.93;;;;;;;19.06;75.96;95466.78;4996458;28;20436;-65
2021/08/07 06:02:23;;;;;;;2.03;1.90;;;;;;;19.01;76.14;95469.53;4995580;28;20655;-65
2021/08/07 06:04:48;;;;;;;2.87;1.40;;;;;;;19.14;75.84;95466.06;4994244;28;20201;-65
2021/08/07 06:07:14;;;;;;;1.50;1.43;;;;;;;19.32;74.99;95460.59;4992749;28;20239;-65
2021/08/07 06:09:39;;;;;;;3.97;1.90;;;;;;;19.51;75.74;95451.63;4977588;28;20266;-66
2021/08/07 06:12:05;;;;;;;1.80;1.50;;;;;;;19.59;76.29;95462.34;4977523;28;20201;-66
2021/08/07 06:14:31;;;;;;;1.80;1.37;;;;;;;19.68;74.03;95460.53;4985814;28;20204;-64
2021/08/07 06:16:56;;;;;;;3.00;1.60;;;;;;;19.87;73.98;95461.13;4995929;28;20176;-65
2021/08/07 06:19:22;;;;;;;2.60;1.10;;;;;;;20.00;73.16;95454.88;4994891;28;20182;-66
2021/08/07 06:21:47;;;;;;;1.70;1.60;;;;;;;20.04;71.73;95447.84;4994509;28;20174;-64
2021/08/07 06:24:13;;;;;;;1.67;1.40;;;;;;;20.06;71.99;95448.31;4995192;28;20284;-65
2021/08/07 06:26:38;;;;;;;2.67;1.60;;;;;;;20.10;71.30;95443.97;4996447;28;20551;-66
2021/08/07 06:29:04;;;;;;;1.43;1.33;;;;;;;20.20;71.83;95429.59;4995963;28;20178;-65
2021/08/07 06:31:30;;;;;;;1.63;1.53;;;;;;;20.25;74.23;95432.13;4995763;28;20651;-65
2021/08/07 06:33:55;;;;;;;1.37;1.20;;;;;;;20.35;74.66;95432.63;4994514;28;20177;-65
2021/08/07 06:36:21;;;;;;;2.13;1.60;;;;;;;20.50;75.40;95431.41;4995625;28;20633;-64
2021/08/07 06:38:46;;;;;;;2.03;1.30;;;;;;;20.60;76.60;95423.09;4978373;28;20213;-65
2021/08/07 06:41:11;;;;;;;2.00;1.40;;;;;;;20.65;73.47;95432.84;4996142;28;20227;-65
2021/08/07 06:43:37;;;;;;;1.47;1.37;;;;;;;20.63;70.42;95432.38;4995478;28;20544;-66
2021/08/07 06:46:02;;;;;;;4.10;1.27;;;;;;;20.71;69.80;95428.94;4995654;28;20609;-65
2021/08/07 06:48:28;;;;;;;2.43;1.50;;;;;;;20.73;70.67;95438.19;4995833;28;20180;-65
2021/08/07 06:50:54;;;;;;;2.60;1.30;;;;;;;20.53;68.10;95433.44;4995917;28;20184;-65
2021/08/07 06:53:20;;;;;;;3.30;1.00;;;;;;;20.45;67.60;95434.22;4994215;28;20796;-65
2021/08/07 06:55:45;;;;;;;1.30;1.00;;;;;;;20.52;68.03;95426.53;4991470;28;20433;-65
2021/08/07 06:58:11;;;;;;;2.00;1.20;;;;;;;20.74;68.22;95407.72;4994010;28;20174;-65
2021/08/07 07:00:38;;;;;;;3.40;1.30;;;;;;;20.91;68.40;95407.72;4995583;28;20162;-66
2021/08/07 07:03:04;;;;;;;2.83;1.43;;;;;;;21.01;70.64;95415.47;4994927;28;20173;-65
2021/08/07 07:05:32;;;;;;;1.70;1.43;;;;;;;21.11;70.14;95430.38;4994958;28;20456;-66
2021/08/07 07:07:57;;;;;;;1.67;1.57;;;;;;;21.21;71.74;95441.56;4995632;28;20409;-65
2021/08/07 07:10:23;;;;;;;3.40;1.33;;;;;;;21.18;69.65;95442.19;4994873;28;20436;-65
2021/08/07 07:12:48;;;;;;;1.47;1.30;;;;;;;21.22;72.01;95435.13;4994927;28;20177;-66
2021/08/07 07:15:14;;;;;;;1.57;1.40;;;;;;;21.31;70.83;95437.78;4994837;28;20201;-65
2021/08/07 07:17:39;;;;;;;1.80;1.20;;;;;;;21.23;67.77;95450.03;4995284;28;20540;-65
2021/08/07 07:20:06;;;;;;;1.17;1.07;;;;;;;21.34;67.42;95447.84;4995501;28;20182;-65
2021/08/07 07:22:31;;;;;;;2.70;1.00;;;;;;;21.20;65.59;95452.56;4995370;28;20165;-65
2021/08/07 07:24:57;;;;;;;1.63;1.00;;;;;;;21.05;66.47;95448.47;4993775;28;20495;-66
2021/08/07 07:27:22;;;;;;;2.53;1.30;;;;;;;21.10;66.87;95450.22;4994780;28;20598;-65
2021/08/07 07:29:48;;;;;;;2.30;1.10;;;;;;;21.07;67.24;95453.50;4994541;28;20178;-65
2021/08/07 07:32:13;;;;;;;1.77;1.30;;;;;;;21.08;66.57;95449.72;4993457;28;20204;-66
2021/08/07 07:34:38;;;;;;;1.40;1.27;;;;;;;21.21;68.26;95438.91;4993042;28;20272;-65
2021/08/07 07:37:06;;;;;;;2.37;1.30;;;;;;;21.33;67.81;95439.03;4994731;28;20637;-65
2021/08/07 07:39:31;;;;;;;2.13;1.70;;;;;;;21.48;67.42;95440.44;4994696;28;20691;-65
2021/08/07 07:41:57;;;;;;;1.60;1.30;;;;;;;21.44;66.58;95436.81;4994825;28;20424;-66
2021/08/07 07:44:22;;;;;;;3.77;1.20;;;;;;;21.31;67.71;95438.56;4993826;28;20204;-66
2021/08/07 07:46:48;;;;;;;1.50;1.40;;;;;;;21.64;67.84;95438.84;4991617;28;20197;-65
2021/08/07 07:49:13;;;;;;;2.50;1.27;;;;;;;21.76;66.54;95433.59;4994817;28;20632;-65
2021/08/07 07:51:40;;;;;;;2.20;1.47;;;;;;;21.71;66.15;95444.47;4994642;28;20213;-65
2021/08/07 07:54:05;;;;;;;4.73;2.10;;;;;;;21.72;65.43;95440.72;4994322;28;20487;-70
2021/08/07 07:56:30;;;;;;;1.43;1.30;;;;;;;21.76;66.43;95438.19;4994309;28;20554;-65
2021/08/07 07:58:56;;;;;;;1.97;1.40;;;;;;;21.73;65.65;95442.28;4994897;28;20223;-67
2021/08/07 08:01:21;;;;;;;2.37;1.37;;;;;;;21.60;65.34;95437.91;4982202;28;20190;-66
2021/08/07 08:03:47;;;;;;;2.23;1.00;;;;;;;21.71;65.30;95419.63;4974814;28;20189;-66
2021/08/07 08:06:12;;;;;;;2.13;1.60;;;;;;;21.78;65.68;95404.66;4974911;28;20208;-65
2021/08/07 08:08:38;;;;;;;1.90;1.63;;;;;;;21.66;65.32;95393.06;4975189;28;20217;-65
2021/08/07 08:11:03;;;;;;;1.60;1.20;;;;;;;21.92;66.74;95389.22;4975090;28;20594;-67
2021/08/07 08:13:29;;;;;;;2.23;1.40;;;;;;;21.94;66.29;95386.22;4987067;28;20268;-67
2021/08/07 08:15:54;;;;;;;1.63;1.07;;;;;;;21.99;65.33;95380.69;4983529;28;20206;-66
2021/08/07 08:18:19;;;;;;;1.90;1.40;;;;;;;21.94;65.28;95378.97;4993620;28;20181;-66
2021/08/07 08:20:45;;;;;;;3.93;1.20;;;;;;;22.04;64.83;95389.34;4994739;28;20169;-66
2021/08/07 08:23:10;;;;;;;1.60;1.40;;;;;;;22.04;62.75;95385.88;4992243;28;20169;-65
2021/08/07 08:25:36;;;;;;;2.93;1.37;;;;;;;21.97;63.40;95394.41;4990232;28;20262;-65
2021/08/07 08:28:02;;;;;;;3.33;1.30;;;;;;;22.21;63.34;95397.25;4990813;28;20543;-65
2021/08/07 08:30:27;;;;;;;2.40;1.37;;;;;;;22.28;62.96;95392.19;4991085;28;20185;-65
2021/08/07 08:32:56;;;;;;;1.50;1.40;;;;;;;22.39;62.77;95382.69;4986238;28;20185;-66
2021/08/07 08:35:21;;;;;;;1.70;1.33;;;;;;;22.31;63.24;95378.19;4993816;28;20655;-66
2021/08/07 08:37:47;;;;;;;1.57;1.20;;;;;;;22.35;63.81;95383.66;4994046;28;20419;-66
2021/08/07 08:40:12;;;;;;;2.13;1.40;;;;;;;22.56;64.70;95378.38;4990907;28;20181;-65
2021/08/07 08:42:38;;;;;;;1.83;1.10;;;;;;;22.62;64.95;95369.81;4990184;28;20570;-66
2021/08/07 08:45:05;;;;;;;1.77;1.40;;;;;;;22.70;63.43;95370.88;4990368;28;20221;-65
2021/08/07 08:47:30;;;;;;;1.50;1.40;;;;;;;22.63;63.19;95379.41;4988684;28;20546;-66
2021/08/07 08:49:56;;;;;;;2.90;1.40;;;;;;;22.72;63.98;95380.13;4990770;28;20416;-65
2021/08/07 08:52:28;;;;;;;2.47;1.60;;;;;;;22.68;64.15;95379.25;4990102;28;20255;-66
2021/08/07 08:54:53;;;;;;;1.47;1.10;;;;;;;22.77;65.54;95377.28;4989857;28;20248;-65
2021/08/07 08:57:21;;;;;;;2.90;1.40;;;;;;;22.76;64.84;95369.56;4991176;28;21163;-66
2021/08/07 08:59:46;;;;;;;1.83;1.60;;;;;;;22.80;67.50;95360.53;4992788;28;20552;-66
2021/08/07 09:02:12;;;;;;;2.93;1.50;;;;;;;22.66;62.99;95370.75;4993814;28;20435;-66
2021/08/07 09:04:37;;;;;;;2.10;1.30;;;;;;;22.69;62.14;95370.09;4987515;28;20233;-65
2021/08/07 09:07:05;;;;;;;3.07;1.60;;;;;;;22.68;61.60;95373.09;4978644;28;20197;-66
2021/08/07 09:09:35;;;;;;;1.67;1.57;;;;;;;22.58;61.68;95382.28;4992864;28;20177;-66
2021/08/07 09:12:01;;;;;;;1.80;1.40;;;;;;;22.54;62.81;95380.56;4997109;28;20413;-65
2021/08/07 09:14:29;;;;;;;1.70;1.60;;;;;;;22.54;62.21;95384.00;4996389;28;20451;-65
2021/08/07 09:17:06;;;;;;;1.40;1.30;;;;;;;22.48;62.63;95382.66;4997923;28;20169;-66
2021/08/07 09:19:40;;;;;;;1.63;1.27;;;;;;;22.38;62.15;95383.00;4997960;28;20458;-65
2021/08/07 09:22:13;;;;;;;1.40;1.30;;;;;;;22.50;62.72;95377.75;4996760;28;20504;-66
2021/08/07 09:25:16;;;;;;;2.73;1.40;;;;;;;22.46;63.34;95380.28;4997061;28;20432;-65
2021/08/07 09:27:49;;;;;;;2.03;1.27;;;;;;;22.45;63.04;95377.94;4997375;28;20938;-66
2021/08/07 09:30:17;;;;;;;2.20;1.10;;;;;;;22.34;62.72;95374.84;4997524;28;20501;-66
2021/08/07 09:32:47;;;;;;;1.67;1.57;;;;;;;22.52;62.89;95383.56;4997148;28;20440;-68
2021/08/07 09:35:15;;;;;;;2.60;1.40;;;;;;;22.50;62.20;95389.22;4994609;28;20448;-66
2021/08/07 09:37:41;;;;;;;2.00;1.60;;;;;;;22.47;62.19;95397.13;4992767;28;20501;-66
2021/08/07 09:40:09;;;;;;;4.57;1.60;;;;;;;22.42;63.15;95390.09;5001259;28;20787;-74
2021/08/07 09:42:55;;;;;;;1.93;1.30;;;;;;;22.44;64.07;95390.56;4996348;28;20424;-68
2021/08/07 09:45:25;;;;;;;3.80;1.53;;;;;;;22.54;65.27;95391.28;4996469;28;20468;-69
2021/08/07 09:47:59;;;;;;;3.97;1.40;;;;;;;22.49;65.32;95403.75;4996985;28;20424;-71
2021/08/07 09:50:26;;;;;;;1.97;1.53;;;;;;;22.36;67.06;95417.34;4996035;28;20428;-65
2021/08/07 09:52:52;;;;;;;3.50;1.40;;;;;;;22.33;68.31;95432.19;4995407;28;20425;-64
2021/08/07 09:55:17;;;;;;;2.40;1.50;;;;;;;22.37;67.95;95443.78;4997135;28;20432;-60
2021/08/07 09:57:43;;;;;;;1.50;1.40;;;;;;;22.27;69.37;95449.53;4997137;28;20174;-65
2021/08/07 10:00:09;;;;;;;2.70;1.77;;;;;;;22.15;70.80;95468.16;4997509;28;20173;-59
2021/08/07 10:02:38;;;;;;;3.67;1.70;;;;;;;22.04;73.02;95460.78;4996081;28;20178;-70
2021/08/07 10:05:11;;;;;;;1.90;1.60;;;;;;;21.95;74.42;95463.50;4996401;28;20452;-67
2021/08/07 10:07:36;;;;;;;1.70;1.60;;;;;;;21.77;76.76;95456.59;4994705;28;20935;-63
2021/08/07 10:10:03;;;;;;;3.10;1.57;;;;;;;21.44;76.65;95447.50;4991083;28;20523;-62
2021/08/07 10:12:28;;;;;;;3.00;1.70;;;;;;;21.57;78.19;95429.72;4992991;28;20177;-63
2021/08/07 10:14:53;;;;;;;9.73;2.03;;;;;;;21.49;76.56;95413.38;4992463;28;20452;-65
2021/08/07 10:17:24;;;;;;;4.27;2.23;;;;;;;21.60;77.85;95397.00;4992602;28;20213;-63
2021/08/07 10:19:51;;;;;;;1.73;1.40;;;;;;;21.70;77.92;95400.13;4992568;28;20551;-64
2021/08/07 10:22:17;;;;;;;2.33;1.73;;;;;;;21.65;75.76;95408.31;4989978;28;20421;-65
2021/08/07 10:24:45;;;;;;;2.90;2.07;;;;;;;21.62;76.15;95413.50;4978483;28;20449;-69
2021/08/07 10:27:12;;;;;;;3.63;1.80;;;;;;;21.50;77.49;95414.19;4988009;28;20467;-62
2021/08/07 10:29:44;;;;;;;2.23;1.70;;;;;;;21.49;78.51;95407.25;4992720;28;20448;-67
2021/08/07 10:32:12;;;;;;;4.33;1.77;;;;;;;21.39;79.82;95397.69;4992222;28;20484;-63
2021/08/07 10:34:41;;;;;;;2.23;1.80;;;;;;;21.32;80.49;95401.94;4992463;28;20444;-68
2021/08/07 10:37:07;;;;;;;2.50;2.30;;;;;;;21.35;80.21;95395.94;4992747;28;20839;-65
2021/08/07 10:39:33;;;;;;;3.43;2.10;;;;;;;21.26;79.93;95390.63;4992610;28;20409;-63
2021/08/07 10:42:02;;;;;;;3.20;1.70;;;;;;;21.25;80.80;95396.28;4991988;28;20185;-64
2021/08/07 10:44:28;;;;;;;2.23;2.03;;;;;;;21.19;81.10;95382.31;4987731;28;20475;-64
2021/08/07 10:46:55;;;;;;;4.93;2.20;;;;;;;21.29;82.52;95392.66;4991661;28;21270;-67
2021/08/07 10:49:38;;;;;;;3.73;2.57;;;;;;;21.11;83.36;95398.31;4992579;28;20417;-67
2021/08/07 10:52:22;;;;;;;3.53;2.23;;;;;;;21.27;82.79;95405.53;4973084;28;20453;-62
2021/08/07 10:54:49;;;;;;;2.80;2.57;;;;;;;21.10;84.52;95404.78;4986877;28;20460;-65
2021/08/07 10:57:44;;;;;;;5.10;2.53;;;;;;;20.86;85.78;95409.75;4991562;28;20447;-62
2021/08/07 11:00:12;;;;;;;3.30;2.40;;;;;;;20.93;86.55;95399.41;4979888;28;20526;-62
2021/08/07 11:02:38;;;;;;;3.10;2.20;;;;;;;20.97;87.74;95400.34;4991699;28;20435;-68
2021/08/07 11:05:04;;;;;;;2.93;2.33;;;;;;;20.98;87.69;95400.03;4991465;28;20478;-68
2021/08/07 11:07:30;;;;;;;3.60;2.40;;;;;;;20.68;87.88;95408.97;4992148;28;20412;-67
2021/08/07 11:10:15;;;;;;;5.33;2.50;;;;;;;20.64;88.86;95391.22;4991700;28;20177;-63
2021/08/07 11:12:43;;;;;;;2.80;2.50;;;;;;;20.59;89.07;95392.16;4991455;28;20997;-67
2021/08/07 11:15:11;;;;;;;3.13;2.60;;;;;;;20.62;89.38;95399.53;4991920;28;20907;-63
2021/08/07 11:17:44;;;;;;;2.80;2.40;;;;;;;20.63;89.33;95395.00;4991881;28;20776;-63
2021/08/07 11:20:15;;;;;;;3.27;2.80;;;;;;;20.73;89.47;95408.81;4987490;28;20429;-64
2021/08/07 11:22:41;;;;;;;3.10;2.90;;;;;;;20.67;90.30;95415.44;4985696;28;20425;-63
2021/08/07 11:25:11;;;;;;;2.70;2.50;;;;;;;20.28;91.93;95431.50;4976549;28;20548;-67
2021/08/07 11:30:23;;;;;;;40.47;7.20;;;;;;;20.23;92.24;95443.09;4979996;28;20931;-62
2021/08/07 11:32:58;;;;;;;6.00;2.67;;;;;;;19.97;94.47;95434.16;4990815;28;20479;-67
2021/08/07 11:38:13;;;;;;;4.00;3.10;;;;;;;19.97;95.18;95434.16;4991329;28;20974;-68